Time;durP1;ratioP1;P1;durP2;ratioP2;P2;SDS_P1;SDS_P2;PMS_P1;PMS_P2;Temp;Humidity;BMP_temperature;BMP_pressure;BME280_temperature;BME280_humidity;BME280_pressure;Samples;Min_cycle;Max_cycle;Signal;HPM_P1;HPM_P2
2022/03/08 05:32:43;;;;;;;;;46.67;36.67;;;;;5.76;41.16;101243.38;5042075;28;45310;-61
2022/03/08 05:35:09;;;;;;;;;50.67;41.00;;;;;5.75;40.78;101249.59;5040378;28;45305;-59
2022/03/08 05:37:36;;;;;;;;;47.00;38.67;;;;;5.73;40.99;101241.63;5040198;28;46009;-59
2022/03/08 05:40:05;;;;;;;;;46.00;39.67;;;;;5.74;41.41;101239.84;5040490;28;45421;-60
2022/03/08 05:42:31;;;;;;;;;48.33;38.33;;;;;5.74;41.25;101243.41;5040277;28;45332;-60
2022/03/08 05:44:56;;;;;;;;;51.00;36.00;;;;;5.75;41.28;101237.16;5040236;28;45338;-61
2022/03/08 05:47:21;;;;;;;;;44.67;35.00;;;;;5.77;41.30;101247.78;5039370;28;46270;-60
2022/03/08 05:49:47;;;;;;;;;39.33;38.33;;;;;5.75;40.88;101244.28;5040117;28;45374;-60
2022/03/08 05:52:12;;;;;;;;;38.33;33.00;;;;;5.74;41.41;101246.06;5040290;28;45320;-61
2022/03/08 05:54:37;;;;;;;;;53.67;40.00;;;;;5.72;41.14;101237.22;5045018;28;45977;-61
2022/03/08 05:57:03;;;;;;;;;52.33;40.33;;;;;5.71;41.19;101240.78;5070218;28;45337;-60
2022/03/08 05:59:28;;;;;;;;;51.00;39.00;;;;;5.71;41.10;101244.31;5039872;28;45405;-60
2022/03/08 06:01:54;;;;;;;;;48.00;41.00;;;;;5.69;41.42;101247.94;5039909;28;45318;-61
2022/03/08 06:04:19;;;;;;;;;42.67;36.67;;;;;5.67;41.63;101250.63;5039833;28;45264;-59
2022/03/08 06:06:44;;;;;;;;;49.00;37.67;;;;;5.68;41.30;101252.38;5054168;28;45288;-60
2022/03/08 06:09:10;;;;;;;;;58.67;41.33;;;;;5.67;41.27;101260.38;5059836;28;45322;-60
2022/03/08 06:11:35;;;;;;;;;42.00;33.33;;;;;5.65;41.26;101254.19;5060133;28;45333;-61
2022/03/08 06:14:00;;;;;;;;;53.33;41.00;;;;;5.64;41.79;101257.75;5059892;28;45764;-60
2022/03/08 06:16:26;;;;;;;;;42.00;38.33;;;;;5.62;41.73;101252.47;5059121;28;45239;-62
2022/03/08 06:18:55;;;;;;;;;47.67;39.33;;;;;5.60;41.60;101251.63;5059166;28;45402;-60
2022/03/08 06:21:21;;;;;;;;;48.67;39.00;;;;;5.60;41.94;101248.09;5059964;28;45505;-61
2022/03/08 06:23:46;;;;;;;;;50.00;39.33;;;;;5.62;41.93;101249.81;5060057;28;45421;-61
2022/03/08 06:26:12;;;;;;;;;51.33;42.00;;;;;5.62;41.74;101260.44;5050759;28;45364;-61
2022/03/08 06:28:37;;;;;;;;;42.33;32.33;;;;;5.61;41.81;101253.34;5039879;28;45447;-60
2022/03/08 06:31:03;;;;;;;;;51.00;38.33;;;;;5.61;41.93;101264.00;5039322;28;45349;-60
2022/03/08 06:33:28;;;;;;;;;47.33;37.67;;;;;5.61;41.72;101253.34;5039527;28;45920;-61
2022/03/08 06:35:53;;;;;;;;;52.33;42.67;;;;;5.60;41.38;101256.06;5039389;28;45286;-61
2022/03/08 06:38:19;;;;;;;;;56.00;41.33;;;;;5.58;41.75;101247.22;5039692;28;45323;-61
2022/03/08 06:40:44;;;;;;;;;44.33;39.33;;;;;5.54;41.71;101267.66;5039709;28;45202;-61
2022/03/08 06:43:09;;;;;;;;;54.67;42.67;;;;;5.52;41.75;101264.19;5039655;28;45333;-61
2022/03/08 06:45:35;;;;;;;;;50.67;36.00;;;;;5.51;41.87;101261.53;5039236;28;46190;-62
2022/03/08 06:48:00;;;;;;;;;49.00;39.00;;;;;5.48;41.86;101267.78;5039226;28;45305;-61
2022/03/08 06:50:25;;;;;;;;;48.67;40.00;;;;;5.50;41.86;101271.31;5039654;28;45294;-60
2022/03/08 06:52:51;;;;;;;;;48.33;36.00;;;;;5.49;42.00;101264.22;5039475;28;45309;-61
2022/03/08 06:55:16;;;;;;;;;39.33;35.33;;;;;5.52;42.10;101260.66;5039226;28;45291;-61
2022/03/08 06:57:41;;;;;;;;;47.67;40.67;;;;;5.54;42.25;101273.00;5039288;28;45249;-61
2022/03/08 07:00:08;;;;;;;;;50.67;41.00;;;;;5.55;41.32;101273.88;5039289;28;45290;-61
2022/03/08 07:02:34;;;;;;;;;61.67;43.67;;;;;5.53;42.07;101268.56;5039168;28;45182;-60
2022/03/08 07:04:59;;;;;;;;;49.67;37.33;;;;;5.52;42.28;101269.50;5039165;28;45303;-57
2022/03/08 07:07:24;;;;;;;;;41.67;38.33;;;;;5.54;42.18;101266.78;5038628;28;45261;-60
2022/03/08 07:09:50;;;;;;;;;49.67;40.33;;;;;5.57;42.18;101266.75;5039571;28;45396;-61
2022/03/08 07:12:15;;;;;;;;;49.67;41.67;;;;;5.58;41.48;101261.41;5038817;28;45478;-60
2022/03/08 07:14:41;;;;;;;;;47.67;41.67;;;;;5.56;41.70;101262.34;5038539;28;46205;-59
2022/03/08 07:17:06;;;;;;;;;46.00;38.00;;;;;5.56;41.84;101268.53;5038352;28;45367;-60
2022/03/08 07:19:32;;;;;;;;;49.00;36.00;;;;;5.57;42.15;101262.31;5038948;28;45359;-61
2022/03/08 07:21:57;;;;;;;;;49.67;37.00;;;;;5.59;41.63;101262.28;5038943;28;45423;-61
2022/03/08 07:24:22;;;;;;;;;50.33;41.33;;;;;5.58;41.69;101264.06;5039034;28;45452;-60
2022/03/08 07:26:48;;;;;;;;;52.00;42.00;;;;;5.63;41.63;101266.63;5024697;28;45387;-60
2022/03/08 07:29:14;;;;;;;;;53.67;41.00;;;;;5.64;41.57;101273.72;5018183;28;45369;-61
2022/03/08 07:31:39;;;;;;;;;47.33;42.67;;;;;5.64;41.63;101282.56;5035250;28;45880;-61
2022/03/08 07:34:05;;;;;;;;;60.67;46.00;;;;;5.65;41.79;101275.47;5057839;28;45460;-60
2022/03/08 07:36:31;;;;;;;;;56.33;44.00;;;;;5.69;41.99;101275.41;5059080;28;45404;-60
2022/03/08 07:38:56;;;;;;;;;51.00;42.33;;;;;5.75;41.86;101292.16;5058816;28;45247;-61
2022/03/08 07:41:21;;;;;;;;;42.33;34.67;;;;;5.75;41.35;101302.81;5058970;28;45329;-60
2022/03/08 07:43:47;;;;;;;;;51.00;42.00;;;;;5.75;41.61;101301.03;5058713;28;45305;-60
2022/03/08 07:46:14;;;;;;;;;51.67;41.33;;;;;5.73;41.64;101297.50;5058154;28;45391;-61
2022/03/08 07:48:40;;;;;;;;;59.00;43.00;;;;;5.78;41.93;101305.41;5058506;28;45268;-61
2022/03/08 07:51:05;;;;;;;;;45.00;35.67;;;;;5.80;41.19;101300.91;5058892;28;45393;-62
2022/03/08 07:53:30;;;;;;;;;56.00;42.00;;;;;5.82;41.27;101293.81;5058643;28;45270;-61
2022/03/08 07:55:56;;;;;;;;;51.00;41.00;;;;;5.84;41.44;101292.88;5053221;28;45432;-61
2022/03/08 07:58:21;;;;;;;;;54.00;42.00;;;;;5.90;41.19;101291.91;5038588;28;45240;-60
2022/03/08 08:00:47;;;;;;;;;61.67;46.00;;;;;5.95;41.11;101290.06;5037936;28;45366;-60
2022/03/08 08:03:13;;;;;;;;;58.33;42.00;;;;;6.00;41.45;101304.16;5037181;28;45378;-61
2022/03/08 08:05:39;;;;;;;;;55.67;41.00;;;;;6.04;41.52;101301.41;5042894;28;45297;-61
2022/03/08 08:08:05;;;;;;;;;57.67;44.33;;;;;6.04;41.12;101301.41;5058423;28;45422;-62
2022/03/08 08:10:31;;;;;;;;;57.33;42.33;;;;;6.04;41.13;101306.72;5058040;28;45455;-61
2022/03/08 08:12:56;;;;;;;;;57.33;45.00;;;;;6.06;41.14;101301.38;5058341;28;45351;-59
2022/03/08 08:15:22;;;;;;;;;58.00;41.33;;;;;6.07;41.21;101292.47;5057637;28;45335;-60
2022/03/08 08:17:47;;;;;;;;;54.67;44.33;;;;;6.12;41.27;101293.28;5058388;28;45439;-62
2022/03/08 08:20:12;;;;;;;;;52.00;41.67;;;;;6.15;41.45;101293.22;5060973;28;45302;-61
2022/03/08 08:22:38;;;;;;;;;50.33;43.00;;;;;6.19;41.46;101296.72;5061606;28;45252;-61
2022/03/08 08:25:06;;;;;;;;;55.33;42.00;;;;;6.22;40.91;101299.28;5061901;28;45165;-59
2022/03/08 08:27:31;;;;;;;;;61.00;44.67;;;;;6.25;40.72;101304.56;5041635;28;45384;-61
2022/03/08 08:29:56;;;;;;;;;57.33;45.33;;;;;6.21;41.01;101297.56;5041584;28;45482;-61
2022/03/08 08:32:22;;;;;;;;;62.33;43.00;;;;;6.23;41.27;101304.59;5041328;28;47046;-63
2022/03/08 08:34:47;;;;;;;;;53.00;41.33;;;;;6.22;41.17;101299.28;5041435;28;45351;-60
2022/03/08 08:37:13;;;;;;;;;48.00;39.67;;;;;6.23;41.56;101301.94;5041389;28;45390;-61
2022/03/08 08:39:39;;;;;;;;;37.33;30.67;;;;;6.28;40.99;101304.53;5041510;28;45307;-61
2022/03/08 08:42:05;;;;;;;;;56.67;43.33;;;;;6.31;41.26;101307.97;5041723;28;45382;-61
2022/03/08 08:44:30;;;;;;;;;48.33;41.00;;;;;6.37;41.48;101307.00;5041276;28;45311;-61
2022/03/08 08:46:55;;;;;;;;;59.00;44.33;;;;;6.43;41.43;101310.41;5041430;28;45272;-61
2022/03/08 08:49:21;;;;;;;;;51.33;41.33;;;;;6.49;40.85;101308.53;5041264;28;45892;-61
2022/03/08 08:51:46;;;;;;;;;54.33;42.33;;;;;6.54;40.95;101310.22;5041372;28;46178;-61
2022/03/08 08:54:12;;;;;;;;;48.33;36.67;;;;;6.55;41.01;101303.09;5042548;28;45430;-61
2022/03/08 08:56:38;;;;;;;;;58.67;41.00;;;;;6.60;41.02;101311.88;5074511;28;45309;-60
2022/03/08 08:59:05;;;;;;;;;57.33;44.00;;;;;6.66;41.49;101314.38;5041678;27;45497;-61
2022/03/08 09:01:31;;;;;;;;;55.33;41.00;;;;;6.70;41.58;101313.44;5040866;28;46297;-60
2022/03/08 09:03:57;;;;;;;;;58.67;44.33;;;;;6.75;41.04;101312.41;5040932;28;45369;-60
2022/03/08 09:06:22;;;;;;;;;52.33;43.67;;;;;6.78;41.04;101299.03;5052688;28;45282;-59
2022/03/08 09:08:48;;;;;;;;;58.00;42.67;;;;;6.85;41.08;101299.78;5061119;28;45532;-60
2022/03/08 09:11:13;;;;;;;;;68.00;47.67;;;;;6.95;40.88;101304.00;5060877;28;45893;-60
2022/03/08 09:13:39;;;;;;;;;59.33;42.33;;;;;7.00;40.85;101302.09;5061182;28;45233;-61
2022/03/08 09:16:05;;;;;;;;;52.33;42.00;;;;;7.07;40.58;101302.81;5060724;28;45321;-60
2022/03/08 09:18:31;;;;;;;;;58.00;45.67;;;;;7.12;40.98;101300.97;5060676;28;45426;-62
2022/03/08 09:20:56;;;;;;;;;56.00;47.33;;;;;7.17;40.67;101305.25;5060906;28;47219;-61
2022/03/08 09:23:22;;;;;;;;;60.67;49.67;;;;;7.19;40.28;101295.44;5060882;28;45309;-60
2022/03/08 09:25:47;;;;;;;;;60.67;46.67;;;;;7.22;39.73;101297.16;5054519;28;45208;-62
2022/03/08 09:28:13;;;;;;;;;58.00;45.67;;;;;7.21;40.75;101293.63;5040073;28;45496;-61
2022/03/08 09:30:38;;;;;;;;;55.00;41.00;;;;;7.28;40.59;101290.81;5039624;28;45873;-61
2022/03/08 09:33:04;;;;;;;;;55.33;44.00;;;;;7.29;40.95;101289.91;5040437;28;45292;-61
2022/03/08 09:35:29;;;;;;;;;59.67;46.00;;;;;7.33;40.19;101280.91;5040730;28;45395;-62
2022/03/08 09:37:55;;;;;;;;;59.67;44.33;;;;;7.38;40.71;101295.00;5040492;28;45496;-60
2022/03/08 09:40:21;;;;;;;;;61.00;43.67;;;;;7.43;40.17;101285.09;5040482;28;46123;-61
2022/03/08 09:42:49;;;;;;;;;51.33;43.33;;;;;7.47;40.19;101289.47;5040386;28;45463;-61
2022/03/08 09:45:15;;;;;;;;;62.33;46.00;;;;;7.52;40.03;101290.22;5039454;28;45447;-63
2022/03/08 09:47:41;;;;;;;;;55.67;43.33;;;;;7.58;40.71;101284.72;5040188;28;45556;-64
2022/03/08 09:50:08;;;;;;;;;54.00;44.00;;;;;7.65;40.19;101285.47;5040384;28;45439;-61
2022/03/08 09:52:37;;;;;;;;;61.67;44.00;;;;;7.72;40.18;101287.94;5038980;28;45285;-60
2022/03/08 09:55:05;;;;;;;;;57.33;45.00;;;;;7.74;40.52;101280.75;5049159;28;45347;-61
2022/03/08 09:57:30;;;;;;;;;62.00;46.33;;;;;7.79;40.39;101285.97;5066816;27;45343;-61
2022/03/08 09:59:56;;;;;;;;;60.00;44.00;;;;;7.84;40.42;101279.59;5040003;28;45317;-61
2022/03/08 10:02:24;;;;;;;;;57.67;46.33;;;;;7.93;40.16;101275.81;5039520;28;45415;-60
2022/03/08 10:05:06;;;;;;;;;60.67;46.00;;;;;7.89;39.94;101259.00;5040253;28;45300;-61
2022/03/08 10:07:31;;;;;;;;;62.67;44.67;;;;;8.06;39.57;101273.69;5049150;28;45383;-61
2022/03/08 10:09:58;;;;;;;;;62.33;48.33;;;;;8.11;39.80;101274.44;5059737;28;45313;-61
2022/03/08 10:12:26;;;;;;;;;46.33;37.00;;;;;8.11;39.31;101263.75;5060323;28;45328;-61
2022/03/08 10:14:52;;;;;;;;;59.33;46.00;;;;;8.12;40.05;101274.41;5060160;28;45516;-60
2022/03/08 10:17:38;;;;;;;;;61.67;46.00;;;;;8.13;40.16;101269.94;5059915;28;45556;-60
2022/03/08 10:20:06;;;;;;;;;60.00;46.33;;;;;8.14;39.83;101264.56;5059766;28;45362;-60
2022/03/08 10:22:34;;;;;;;;;65.67;47.67;;;;;8.17;40.20;101256.44;5059985;28;45363;-61
2022/03/08 10:25:29;;;;;;;;;60.67;46.00;;;;;8.24;39.81;101255.38;5059887;28;45322;-61
2022/03/08 10:27:55;;;;;;;;;63.33;46.67;;;;;8.30;39.80;101249.84;5034867;28;45346;-61
2022/03/08 10:30:22;;;;;;;;;63.00;47.00;;;;;8.36;39.83;101243.47;5039421;28;45407;-61
2022/03/08 10:32:48;;;;;;;;;58.67;46.67;;;;;8.40;39.45;101255.84;5019603;28;45412;-62
2022/03/08 10:35:28;;;;;;;;;65.33;47.00;;;;;8.39;39.82;101247.88;5019893;28;45330;-60
2022/03/08 10:37:57;;;;;;;;;58.33;47.33;;;;;8.42;39.58;101245.97;5019387;28;45225;-61
2022/03/08 10:40:30;;;;;;;;;59.00;44.00;;;;;8.49;39.31;101246.69;5019527;28;46078;-61
2022/03/08 10:43:03;;;;;;;;;60.67;49.33;;;;;8.55;39.76;101247.38;5018169;28;45383;-62
2022/03/08 10:45:30;;;;;;;;;61.00;45.33;;;;;8.61;39.96;101241.84;5019714;28;45430;-61
2022/03/08 10:47:56;;;;;;;;;63.00;49.67;;;;;8.71;39.90;101243.31;5026273;28;45250;-62
2022/03/08 10:50:24;;;;;;;;;64.67;46.67;;;;;8.79;38.73;101244.88;5039435;28;46069;-60
2022/03/08 10:52:52;;;;;;;;;57.00;45.67;;;;;8.86;39.29;101249.09;5039459;28;45314;-62
2022/03/08 10:55:24;;;;;;;;;56.67;46.00;;;;;8.96;39.59;101240.75;5039412;28;45528;-61
2022/03/08 10:57:55;;;;;;;;;56.00;42.67;;;;;9.08;39.09;101242.19;5039463;28;46173;-60
2022/03/08 11:00:23;;;;;;;;;58.67;45.00;;;;;9.20;38.90;101233.75;5038803;28;45546;-60
2022/03/08 11:02:51;;;;;;;;;60.00;47.67;;;;;9.33;38.96;101216.38;5039235;28;45386;-61
2022/03/08 11:05:19;;;;;;;;;56.33;46.00;;;;;9.46;38.81;101214.16;5036741;28;45453;-60
2022/03/08 11:07:45;;;;;;;;;60.33;46.00;;;;;9.59;38.28;101209.28;5019237;28;45392;-60
2022/03/08 11:10:12;;;;;;;;;57.67;45.00;;;;;9.70;38.03;101217.78;5018873;28;46179;-59
2022/03/08 11:12:38;;;;;;;;;57.00;45.33;;;;;9.84;38.31;101208.38;5019249;28;45616;-60
2022/03/08 11:15:06;;;;;;;;;58.33;46.33;;;;;9.99;38.48;101208.75;5018736;28;45442;-61
2022/03/08 11:17:35;;;;;;;;;58.67;47.33;;;;;10.14;37.67;101208.19;5019025;28;45480;-61
2022/03/08 11:20:04;;;;;;;;;57.33;45.33;;;;;10.30;37.50;101205.84;5018661;28;46053;-61
2022/03/08 11:22:30;;;;;;;;;59.67;47.00;;;;;10.46;37.46;101202.50;5019038;28;45408;-60
2022/03/08 11:24:56;;;;;;;;;54.33;38.33;;;;;10.64;36.57;101200.94;5019048;28;45324;-62
2022/03/08 11:27:22;;;;;;;;;65.33;47.33;;;;;10.82;36.22;101191.31;5037290;28;45570;-60
2022/03/08 11:29:49;;;;;;;;;59.33;47.67;;;;;10.97;36.50;101201.44;5019507;28;45352;-60
2022/03/08 11:32:28;;;;;;;;;54.75;45.25;;;;;11.13;35.68;101188.28;5034307;28;45416;-60
2022/03/08 11:35:06;;;;;;;;;59.33;46.00;;;;;11.32;35.65;101197.28;5019116;28;45400;-62
2022/03/08 11:37:35;;;;;;;;;60.50;44.75;;;;;11.53;35.00;101192.84;5018884;28;45386;-61
2022/03/08 11:40:05;;;;;;;;;46.00;40.50;;;;;11.74;35.45;101197.28;5019100;28;46589;-60
2022/03/08 11:42:32;;;;;;;;;61.50;47.50;;;;;11.96;34.33;101191.88;5018595;28;45329;-62
2022/03/08 11:45:07;;;;;;;;;51.25;43.75;;;;;12.23;34.12;101193.34;5018571;28;45360;-61
2022/03/08 11:47:44;;;;;;;;;57.50;46.75;;;;;12.54;34.25;101186.53;5018285;28;45392;-61
2022/03/08 11:50:28;;;;;;;;;57.75;45.50;;;;;12.92;33.83;101187.41;5031741;28;46349;-60
2022/03/08 11:53:07;;;;;;;;;31.00;27.75;;;;;13.30;33.82;101180.16;5038678;28;45367;-61
2022/03/08 11:55:38;;;;;;;;;58.25;44.75;;;;;13.88;32.00;101184.28;5041995;28;45455;-61
2022/03/08 11:58:09;;;;;;;;;61.75;47.75;;;;;14.73;30.92;101182.34;5042076;28;45304;-61
2022/03/08 12:00:50;;;;;;;;;56.25;43.50;;;;;15.72;29.70;101182.00;5041813;28;46311;-62
2022/03/08 12:03:21;;;;;;;;;54.25;43.25;;;;;16.75;28.54;101179.19;5041916;28;45262;-62
2022/03/08 12:06:02;;;;;;;;;59.75;46.75;;;;;17.74;27.25;101177.03;5042142;28;45325;-63
2022/03/08 12:08:27;;;;;;;;;52.00;42.00;;;;;18.60;26.38;101161.00;5041614;28;45496;-61
2022/03/08 12:11:02;;;;;;;;;48.00;37.00;;;;;19.55;24.97;101169.28;5041865;28;47442;-61
2022/03/08 12:13:29;;;;;;;;;57.75;43.00;;;;;20.48;23.67;101161.94;5041848;28;45406;-61
2022/03/08 12:16:06;;;;;;;;;48.50;41.00;;;;;21.46;22.26;101155.56;5041867;28;45360;-71
2022/03/08 12:18:42;;;;;;;;;54.00;44.25;;;;;22.42;21.57;101147.22;5041786;28;45553;-66
2022/03/08 12:21:20;;;;;;;;;59.75;44.75;;;;;23.20;20.64;101145.63;5041715;28;46027;-63
2022/03/08 12:23:49;;;;;;;;;51.00;42.25;;;;;23.95;20.16;101144.91;5041986;28;45375;-63
2022/03/08 12:26:24;;;;;;;;;51.75;40.25;;;;;24.73;19.38;101146.41;5032514;28;45327;-60
2022/03/08 12:29:23;;;;;;;;;50.00;42.75;;;;;25.46;18.55;101134.41;5021920;28;45535;-70
2022/03/08 12:31:58;;;;;;;;;51.25;40.75;;;;;26.15;18.07;101147.38;5024146;28;46488;-71
2022/03/08 12:34:42;;;;;;;;;60.25;45.25;;;;;26.91;17.40;101141.13;5021590;28;45277;-63
2022/03/08 12:37:26;;;;;;;;;51.00;43.50;;;;;27.61;17.32;101144.41;5021818;28;45540;-67
2022/03/08 12:39:56;;;;;;;;;55.00;43.50;;;;;28.07;16.57;101148.38;5030353;28;45412;-59
2022/03/08 12:42:25;;;;;;;;;53.25;42.75;;;;;28.55;15.42;101153.81;5041573;28;46297;-66
2022/03/08 12:44:50;;;;;;;;;52.25;42.50;;;;;28.71;15.10;101147.38;5041583;28;45391;-61
2022/03/08 12:47:17;;;;;;;;;48.00;39.00;;;;;28.99;15.70;101142.31;5041555;28;45437;-60
2022/03/08 12:49:43;;;;;;;;;49.50;39.50;;;;;29.23;15.11;101141.28;5041782;28;45379;-64
2022/03/08 12:52:09;;;;;;;;;54.00;41.50;;;;;29.37;14.30;101146.06;5038835;28;45265;-60
2022/03/08 12:54:38;;;;;;;;;47.50;38.00;;;;;29.67;15.29;101145.16;5035207;28;45403;-59
2022/03/08 12:57:05;;;;;;;;;56.25;41.00;;;;;30.02;15.21;101151.13;5010008;28;45361;-61
2022/03/08 12:59:30;;;;;;;;;54.25;43.00;;;;;30.31;14.44;101147.53;5031545;28;45486;-67
2022/03/08 13:02:09;;;;;;;;;47.25;39.00;;;;;30.68;14.63;101135.56;5041213;28;45325;-66
2022/03/08 13:04:34;;;;;;;;;43.75;37.00;;;;;30.83;13.69;101120.66;5041281;28;45350;-66
2022/03/08 13:07:12;;;;;;;;;44.75;38.00;;;;;31.05;12.77;101123.50;5026393;28;45361;-70
2022/03/08 13:09:59;;;;;;;;;50.00;36.50;;;;;31.30;13.73;101129.56;5031274;28;45539;-66
2022/03/08 13:12:32;;;;;;;;;46.00;36.75;;;;;31.27;13.07;101118.88;5031784;28;46501;-64
2022/03/08 13:15:09;;;;;;;;;46.00;37.75;;;;;31.25;13.10;101119.06;5032141;28;45434;-72
2022/03/08 13:17:35;;;;;;;;;44.25;38.00;;;;;31.17;13.54;101124.72;5034662;28;45387;-69
2022/03/08 13:20:00;;;;;;;;;46.25;38.00;;;;;31.03;13.83;101118.16;5024168;28;45483;-71
2022/03/08 13:22:26;;;;;;;;;42.75;36.00;;;;;31.04;13.55;101124.53;5020981;28;45488;-66
2022/03/08 13:25:11;;;;;;;;;40.00;33.75;;;;;30.99;13.36;101125.09;5020886;28;45464;-70
2022/03/08 13:27:55;;;;;;;;;37.25;33.00;;;;;30.91;13.95;101119.69;5034284;28;45336;-68
2022/03/08 13:30:29;;;;;;;;;45.75;35.00;;;;;30.38;13.27;101124.44;5020714;28;45435;-67
2022/03/08 13:33:25;;;;;;;;;45.25;36.25;;;;;29.55;14.80;101120.91;5020601;28;46142;-64
2022/03/08 13:35:50;;;;;;;;;48.75;37.75;;;;;29.01;15.83;101123.63;5015936;28;45359;-57
2022/03/08 13:38:43;;;;;;;;;49.00;38.25;;;;;28.21;16.18;101129.25;5021054;28;45296;-70
2022/03/08 13:41:14;;;;;;;;;40.00;31.75;;;;;27.63;15.76;101131.34;5019508;28;45428;-68
2022/03/08 13:43:42;;;;;;;;;49.50;38.00;;;;;27.14;16.23;101127.63;5020770;28;45285;-59
2022/03/08 13:46:20;;;;;;;;;43.00;35.25;;;;;26.60;16.25;101130.66;5020394;28;45447;-59
2022/03/08 13:48:51;;;;;;;;;44.50;37.75;;;;;26.24;17.12;101137.28;5020634;28;45450;-63
2022/03/08 13:51:24;;;;;;;;;40.50;36.00;;;;;25.95;17.68;101132.09;5020591;28;45317;-60
2022/03/08 13:53:49;;;;;;;;;54.50;42.50;;;;;25.63;18.07;101118.97;5021590;28;45257;-61
2022/03/08 13:56:15;;;;;;;;;49.75;38.50;;;;;25.59;16.62;101126.69;5019313;28;45969;-60
2022/03/08 13:58:42;;;;;;;;;39.75;32.50;;;;;25.79;17.78;101126.47;5034987;28;45300;-62
2022/03/08 14:01:15;;;;;;;;;47.50;37.25;;;;;26.17;17.00;101125.22;5020134;28;45435;-66
2022/03/08 14:03:43;;;;;;;;;39.50;33.75;;;;;26.60;16.07;101118.81;5019976;28;46244;-64
2022/03/08 14:06:11;;;;;;;;;41.50;33.50;;;;;26.97;16.10;101126.69;5029518;28;45400;-63
2022/03/08 14:08:58;;;;;;;;;47.50;36.75;;;;;27.24;15.69;101131.06;5035235;28;45375;-62
2022/03/08 14:11:25;;;;;;;;;37.50;33.50;;;;;27.25;15.88;101136.41;5019793;28;45999;-62
2022/03/08 14:14:01;;;;;;;;;37.50;33.25;;;;;27.30;16.09;101124.91;5020013;28;45337;-61
2022/03/08 14:16:47;;;;;;;;;46.75;35.00;;;;;27.50;15.50;101132.66;5021648;28;45404;-60
2022/03/08 14:19:15;;;;;;;;;36.75;29.00;;;;;27.50;15.32;101142.81;5040150;28;45332;-59
2022/03/08 14:21:42;;;;;;;;;43.75;36.25;;;;;27.58;15.99;101140.09;5039734;28;45339;-64
2022/03/08 14:24:21;;;;;;;;;45.75;34.50;;;;;27.56;16.37;101144.91;5039881;28;46140;-60
2022/03/08 14:27:08;;;;;;;;;41.75;37.00;;;;;27.42;16.34;101140.91;5025484;28;45403;-75
2022/03/08 14:29:37;;;;;;;;;45.75;38.00;;;;;27.43;15.62;101158.31;5019653;28;45357;-70
2022/03/08 14:32:09;;;;;;;;;43.00;32.25;;;;;27.36;16.54;101151.75;5033418;28;45477;-64
2022/03/08 14:34:36;;;;;;;;;47.25;39.25;;;;;27.38;15.95;101146.94;5039537;28;45389;-61
2022/03/08 14:37:05;;;;;;;;;41.75;36.00;;;;;27.25;16.22;101141.91;5039690;28;45380;-62
2022/03/08 14:39:34;;;;;;;;;45.75;36.75;;;;;27.29;16.20;101151.56;5039780;28;45405;-73
2022/03/08 14:42:08;;;;;;;;;47.00;39.00;;;;;27.42;16.53;101146.44;5039076;28;45376;-65
2022/03/08 14:44:36;;;;;;;;;49.00;38.75;;;;;27.44;16.34;101144.38;5019234;28;46345;-67
2022/03/08 14:47:03;;;;;;;;;49.25;38.00;;;;;27.45;16.07;101148.84;5019489;28;45450;-62
2022/03/08 14:49:29;;;;;;;;;51.50;40.25;;;;;27.44;15.96;101146.25;5019842;28;45226;-57
2022/03/08 14:51:55;;;;;;;;;39.00;35.75;;;;;27.35;15.95;101148.13;5019309;28;45348;-61
2022/03/08 14:54:21;;;;;;;;;53.00;39.00;;;;;27.30;16.24;101144.19;5021801;28;45466;-59
2022/03/08 14:56:47;;;;;;;;;47.75;39.25;;;;;27.07;16.48;101147.53;5036347;28;45494;-61
2022/03/08 14:59:13;;;;;;;;;47.75;38.75;;;;;26.83;16.34;101154.81;5019300;28;45387;-66
2022/03/08 15:01:39;;;;;;;;;45.75;37.75;;;;;26.68;16.97;101149.94;5018947;28;45422;-68
2022/03/08 15:04:06;;;;;;;;;52.00;41.00;;;;;26.63;16.86;101157.81;5018884;28;45409;-62
2022/03/08 15:06:32;;;;;;;;;47.75;37.75;;;;;26.56;17.27;101151.25;5031845;28;45364;-62
2022/03/08 15:08:58;;;;;;;;;50.00;41.25;;;;;26.51;17.67;101163.78;5039275;28;45452;-60
2022/03/08 15:11:23;;;;;;;;;45.00;39.50;;;;;26.43;17.23;101163.75;5039256;28;45231;-59
2022/03/08 15:13:49;;;;;;;;;53.25;43.00;;;;;26.27;17.54;101156.25;5038364;28;46923;-62
2022/03/08 15:16:14;;;;;;;;;51.50;39.00;;;;;26.10;17.27;101152.50;5039072;28;45269;-61
2022/03/08 15:18:39;;;;;;;;;52.25;42.25;;;;;25.92;17.81;101149.78;5038822;28;45321;-65
2022/03/08 15:21:06;;;;;;;;;54.25;40.50;;;;;25.80;17.75;101145.56;5039117;28;45392;-64
2022/03/08 15:23:31;;;;;;;;;47.75;39.50;;;;;25.76;18.27;101148.78;5039043;28;46166;-64
2022/03/08 15:25:57;;;;;;;;;55.00;44.00;;;;;25.62;18.09;101150.19;5032739;28;46174;-67
2022/03/08 15:28:22;;;;;;;;;54.75;42.25;;;;;25.48;18.21;101145.22;5038501;28;45841;-67
2022/03/08 15:30:48;;;;;;;;;50.75;38.00;;;;;25.41;18.71;101155.13;5020954;28;47584;-67
2022/03/08 15:33:13;;;;;;;;;55.25;44.75;;;;;25.26;18.79;101157.56;5037888;28;46136;-67
2022/03/08 15:35:39;;;;;;;;;52.25;41.50;;;;;25.17;19.09;101153.84;5038797;28;45377;-65
2022/03/08 15:38:04;;;;;;;;;49.25;41.25;;;;;25.00;19.27;101146.44;5039012;28;45552;-67
2022/03/08 15:40:30;;;;;;;;;51.75;41.75;;;;;24.93;19.02;101152.69;5038895;28;45331;-67
2022/03/08 15:42:55;;;;;;;;;55.50;45.25;;;;;24.76;19.21;101143.34;5038783;28;45378;-66
2022/03/08 15:45:21;;;;;;;;;56.75;43.00;;;;;24.55;19.37;101146.34;5038037;28;45398;-67
2022/03/08 15:47:47;;;;;;;;;57.00;44.25;;;;;24.35;19.46;101145.56;5038529;28;45355;-66
2022/03/08 15:50:13;;;;;;;;;49.75;41.50;;;;;24.20;20.10;101143.41;5038380;28;45339;-67
2022/03/08 15:52:40;;;;;;;;;49.00;41.00;;;;;24.16;20.03;101144.75;5038326;28;46184;-67
2022/03/08 15:55:13;;;;;;;;;53.25;44.00;;;;;23.99;20.53;101149.94;5047802;28;45329;-65
2022/03/08 15:57:39;;;;;;;;;60.50;46.00;;;;;23.88;20.09;101155.59;5050896;28;45285;-66
2022/03/08 16:00:07;;;;;;;;;53.75;43.50;;;;;23.82;20.17;101161.63;5037631;28;45375;-65
2022/03/08 16:02:33;;;;;;;;;54.25;43.50;;;;;23.72;20.38;101167.16;5038342;28;46320;-66
2022/03/08 16:04:58;;;;;;;;;54.25;44.00;;;;;23.64;20.99;101172.47;5038547;28;45608;-67
2022/03/08 16:07:24;;;;;;;;;51.25;39.25;;;;;23.55;20.70;101172.47;5058036;28;45382;-66
2022/03/08 16:09:49;;;;;;;;;59.50;46.00;;;;;23.40;21.01;101175.56;5058582;28;45373;-64
2022/03/08 16:12:14;;;;;;;;;54.25;42.75;;;;;23.25;21.30;101163.31;5058499;28;46151;-65
2022/03/08 16:14:40;;;;;;;;;57.50;45.25;;;;;23.06;21.21;101168.75;5057752;28;45307;-66
2022/03/08 16:17:05;;;;;;;;;55.50;41.75;;;;;22.88;21.19;101165.81;5058585;28;45410;-68
2022/03/08 16:19:30;;;;;;;;;53.25;42.25;;;;;22.69;21.33;101176.69;5058480;28;45321;-65
2022/03/08 16:21:56;;;;;;;;;54.50;44.50;;;;;22.57;21.33;101175.91;5057975;28;45400;-66
2022/03/08 16:24:21;;;;;;;;;55.50;44.25;;;;;22.40;21.87;101182.00;5058312;28;45299;-66
2022/03/08 16:26:46;;;;;;;;;61.75;47.25;;;;;22.25;21.93;101186.09;5044827;28;45422;-67
2022/03/08 16:29:12;;;;;;;;;63.75;46.75;;;;;22.08;22.03;101176.63;5037886;28;45479;-66
2022/03/08 16:31:38;;;;;;;;;49.75;42.25;;;;;21.94;22.58;101179.69;5038071;28;45349;-66
2022/03/08 16:34:04;;;;;;;;;59.50;44.75;;;;;21.79;22.28;101181.84;5038108;28;45343;-65
2022/03/08 16:36:30;;;;;;;;;55.50;44.25;;;;;21.72;22.92;101179.78;5038532;28;45329;-67
2022/03/08 16:38:55;;;;;;;;;54.75;43.00;;;;;21.64;22.92;101182.28;5038011;28;45523;-67
2022/03/08 16:41:21;;;;;;;;;52.75;43.50;;;;;21.48;23.30;101180.88;5041226;28;46049;-67
2022/03/08 16:43:46;;;;;;;;;56.00;43.50;;;;;21.40;22.93;101186.13;5041366;28;45290;-67
2022/03/08 16:46:11;;;;;;;;;57.25;45.00;;;;;21.31;23.60;101186.00;5022029;28;45332;-66
2022/03/08 16:48:37;;;;;;;;;59.00;45.25;;;;;21.22;22.87;101193.09;5021345;28;45510;-65
2022/03/08 16:51:03;;;;;;;;;52.75;41.50;;;;;21.13;23.69;101199.28;5021386;28;47071;-66